Main page
METAR-TAF:

METAR-TAF

Airports :

Amman, Jordan

Amman Civil Airport

latitude: 31-59N, longitude: 035-59E, elevation: 767 m

Current weather observation

The report was made 32 minutes ago, at 20:00 UTC
Wind 5 kt from the Northwest
Temperature 21°C
Humidity 64%
Pressure 1014 hPa
Visibility: 8000 m

METAR: OJAM 232000Z 32005KT 8000 NSC 21/14 Q1014 NOSIG

Time: 23:32 (20:32 UTC)

Forecast

The report was made 3 hours and 42 minutes ago, at 16:50 UTC
Forecast valid from 23 at 18 UTC to 25 at 06 UTC
Wind 6 kt from the West/Northwest
Visibility: 5000 m
haze
Temporary
from 24 at 02 UTC to 24 at 06 UTC
Wind 2 kt from variable directions

TAF: OJAM 231650Z 2318/2506 30006KT 5000 HZ NSC TEMPO 2402/2406 VRB02KT

Weather observations and forecasts of more than 4000 airports (METAR and TAF reports).

The available stations are represented by yellow and red dots on the map.

Hover mouse over dot to see the name of the station.

Then click to see weather observations and forecasts.

To change the map : click on the green buttons with a black cross to zoom in, on the green button with a dash to zoom out, or on the green arrows for adjacent maps.


METAR-TAF: